Time;durP1;ratioP1;P1;durP2;ratioP2;P2;SDS_P1;SDS_P2;PMS_P1;PMS_P2;Temp;Humidity;BMP_temperature;BMP_pressure;BME280_temperature;BME280_humidity;BME280_pressure;Samples;Min_cycle;Max_cycle;Signal;HPM_P1;HPM_P2
2021/11/14 00:01:04;;;;;;;4.25;1.95;;;1.40;99.90;;;;;;4379142;32;20078;-73
2021/11/14 00:03:31;;;;;;;2.95;1.95;;;1.40;99.90;;;;;;4355331;32;20140;-73
2021/11/14 00:05:58;;;;;;;3.60;2.47;;;1.20;99.90;;;;;;4382274;32;20154;-73
2021/11/14 00:08:24;;;;;;;2.90;1.90;;;1.20;99.90;;;;;;4378711;32;20460;-72
2021/11/14 00:10:54;;;;;;;3.65;2.47;;;1.10;99.90;;;;;;4366779;32;20066;-72
2021/11/14 00:13:21;;;;;;;3.67;2.30;;;1.10;99.90;;;;;;4366530;32;20169;-72
2021/11/14 00:15:47;;;;;;;2.70;2.22;;;1.10;99.90;;;;;;4353541;32;20517;-72
2021/11/14 00:18:13;;;;;;;3.70;2.40;;;1.20;99.90;;;;;;4353780;32;20082;-72
2021/11/14 00:20:40;;;;;;;3.28;2.20;;;1.10;99.90;;;;;;4354018;32;20077;-72
2021/11/14 00:23:06;;;;;;;3.85;2.42;;;1.10;99.90;;;;;;4366080;32;20466;-73
2021/11/14 00:25:32;;;;;;;2.60;1.80;;;1.00;99.90;;;;;;4353622;32;20455;-72
2021/11/14 00:27:59;;;;;;;3.62;2.22;;;1.00;99.90;;;;;;4378355;32;20084;-72
2021/11/14 00:30:25;;;;;;;3.08;2.20;;;1.00;99.90;;;;;;4365910;32;20074;-72
2021/11/14 00:32:52;;;;;;;3.30;2.40;;;1.00;99.90;;;;;;4365901;32;20069;-71
2021/11/14 00:35:20;;;;;;;3.42;2.53;;;1.10;99.90;;;;;;4365740;32;20096;-71
2021/11/14 00:37:46;;;;;;;2.90;2.25;;;1.10;99.90;;;;;;4365393;32;20173;-72
2021/11/14 00:40:16;;;;;;;3.45;2.30;;;1.20;99.90;;;;;;4377471;32;20078;-72
2021/11/14 00:42:43;;;;;;;3.22;2.17;;;1.10;99.90;;;;;;4366418;32;20073;-73
2021/11/14 00:45:09;;;;;;;3.22;2.40;;;1.10;99.90;;;;;;4366012;32;20089;-71
2021/11/14 00:47:36;;;;;;;3.15;2.22;;;1.20;99.90;;;;;;4354866;32;20074;-71
2021/11/14 00:50:07;;;;;;;3.05;2.15;;;1.20;99.90;;;;;;4366562;32;20074;-72
2021/11/14 00:52:34;;;;;;;2.92;2.15;;;1.20;99.90;;;;;;4366968;32;20188;-72
2021/11/14 00:55:01;;;;;;;4.55;2.60;;;1.20;99.90;;;;;;4353793;32;20517;-73
2021/11/14 00:57:27;;;;;;;3.15;2.20;;;1.20;99.90;;;;;;4378351;32;20085;-73
2021/11/14 00:59:53;;;;;;;5.57;2.30;;;1.20;99.90;;;;;;4377864;32;20078;-72
2021/11/14 01:02:19;;;;;;;2.53;2.10;;;1.30;99.90;;;;;;4377649;32;20072;-73
2021/11/14 01:04:45;;;;;;;3.22;2.40;;;1.30;99.90;;;;;;4377409;32;20065;-72
2021/11/14 01:07:11;;;;;;;3.35;2.42;;;1.30;99.90;;;;;;4365434;32;20082;-71
2021/11/14 01:09:39;;;;;;;2.53;2.30;;;1.40;99.90;;;;;;4365784;32;20085;-72
2021/11/14 01:12:06;;;;;;;3.87;2.33;;;1.40;99.90;;;;;;4365820;32;20687;-73
2021/11/14 01:14:33;;;;;;;2.42;1.58;;;1.30;99.90;;;;;;4364995;32;20515;-73
2021/11/14 01:16:59;;;;;;;2.15;1.67;;;1.40;99.90;;;;;;4377449;32;20077;-72
2021/11/14 01:19:25;;;;;;;2.60;1.87;;;1.50;99.90;;;;;;4365049;32;20508;-73
2021/11/14 01:21:51;;;;;;;2.40;1.65;;;1.60;99.90;;;;;;4353032;32;20066;-73
2021/11/14 01:24:17;;;;;;;2.72;1.70;;;1.60;99.90;;;;;;4377701;32;20092;-72
2021/11/14 01:26:43;;;;;;;3.65;1.85;;;1.60;99.90;;;;;;4377681;32;20074;-72
2021/11/14 01:29:10;;;;;;;1.30;1.20;;;1.50;99.90;;;;;;4391779;32;20076;-71
2021/11/14 01:31:36;;;;;;;1.70;1.50;;;1.60;99.90;;;;;;4365060;32;20077;-72
2021/11/14 01:34:02;;;;;;;3.40;2.00;;;1.60;99.90;;;;;;4377300;32;20082;-72
2021/11/14 01:36:32;;;;;;;2.95;2.05;;;1.60;99.90;;;;;;4365079;32;20074;-73
2021/11/14 01:39:04;;;;;;;2.83;2.08;;;1.60;99.90;;;;;;4364956;32;20101;-72
2021/11/14 01:41:31;;;;;;;2.50;1.90;;;1.60;99.90;;;;;;4353693;32;20145;-73
2021/11/14 01:43:57;;;;;;;2.58;1.98;;;1.60;99.90;;;;;;4391326;32;20077;-72
2021/11/14 01:46:23;;;;;;;1.85;1.73;;;1.60;99.90;;;;;;4365260;32;20077;-71
2021/11/14 01:48:50;;;;;;;2.78;1.70;;;1.60;99.90;;;;;;4377142;32;20443;-72
2021/11/14 01:51:17;;;;;;;1.75;1.37;;;1.60;99.90;;;;;;4377711;32;20153;-72
2021/11/14 01:53:43;;;;;;;2.15;1.62;;;1.60;99.90;;;;;;4377176;32;20068;-72
2021/11/14 01:56:11;;;;;;;1.73;1.52;;;1.60;99.90;;;;;;4365532;32;20154;-72
2021/11/14 01:58:37;;;;;;;1.83;1.65;;;1.60;99.90;;;;;;4377594;32;20074;-72
2021/11/14 02:01:26;;;;;;;3.15;2.00;;;1.60;99.90;;;;;;4364789;32;20083;-72
2021/11/14 02:04:01;;;;;;;2.80;2.10;;;1.60;99.90;;;;;;4377273;32;20152;-72
2021/11/14 02:06:27;;;;;;;3.22;2.28;;;1.60;99.90;;;;;;4391972;32;20165;-73
2021/11/14 02:08:54;;;;;;;2.90;2.10;;;1.60;99.90;;;;;;4365077;32;20468;-71
2021/11/14 02:11:21;;;;;;;2.25;1.83;;;1.60;99.90;;;;;;4364856;32;20177;-72
2021/11/14 02:13:48;;;;;;;2.05;1.85;;;1.50;99.90;;;;;;4376888;32;20507;-72
2021/11/14 02:16:15;;;;;;;1.92;1.60;;;1.50;99.90;;;;;;4365360;32;20078;-72
2021/11/14 02:18:41;;;;;;;2.15;1.70;;;1.50;99.90;;;;;;4364720;32;20158;-72
2021/11/14 02:21:08;;;;;;;2.42;1.92;;;1.50;99.90;;;;;;4377048;32;20525;-71
2021/11/14 02:23:34;;;;;;;1.73;1.50;;;1.40;99.90;;;;;;4352385;32;20073;-72
2021/11/14 02:26:00;;;;;;;3.37;1.75;;;1.40;99.90;;;;;;4364685;32;20116;-72
2021/11/14 02:28:26;;;;;;;2.37;1.80;;;1.40;99.90;;;;;;4352797;32;20084;-72
2021/11/14 02:30:54;;;;;;;2.42;1.85;;;1.40;99.90;;;;;;4377271;32;20161;-72
2021/11/14 02:33:20;;;;;;;3.53;2.62;;;1.40;99.90;;;;;;4364309;32;20444;-73
2021/11/14 02:35:50;;;;;;;3.42;2.55;;;1.30;99.90;;;;;;4364998;32;20081;-72
2021/11/14 02:38:17;;;;;;;4.40;2.50;;;1.30;99.90;;;;;;4352187;32;20156;-72
2021/11/14 02:40:44;;;;;;;4.25;3.00;;;1.30;99.90;;;;;;4389622;32;20171;-71
2021/11/14 02:43:11;;;;;;;4.00;2.60;;;1.40;99.90;;;;;;4377183;32;20084;-72
2021/11/14 02:45:38;;;;;;;3.22;2.35;;;1.40;99.90;;;;;;4377783;32;20157;-72
2021/11/14 02:48:05;;;;;;;2.92;2.00;;;1.40;99.90;;;;;;4376941;32;20058;-71
2021/11/14 02:50:32;;;;;;;3.30;1.90;;;1.40;99.90;;;;;;4377147;32;20535;-71
2021/11/14 02:52:58;;;;;;;2.15;1.80;;;1.40;99.90;;;;;;4364159;32;20522;-72
2021/11/14 02:55:25;;;;;;;2.30;1.80;;;1.50;99.90;;;;;;4352317;32;20497;-72
2021/11/14 02:57:51;;;;;;;1.87;1.50;;;1.50;99.90;;;;;;4364839;32;20161;-72
2021/11/14 03:01:14;;;;;;;1.90;1.58;;;1.40;99.90;;;;;;4364570;32;20070;-72
2021/11/14 03:03:41;;;;;;;1.83;1.48;;;1.40;99.90;;;;;;4358412;32;20524;-72
2021/11/14 03:06:09;;;;;;;1.70;1.50;;;1.40;99.90;;;;;;4367054;32;20066;-73
2021/11/14 03:08:35;;;;;;;1.30;1.17;;;1.40;99.90;;;;;;4367213;32;20078;-71
2021/11/14 03:11:03;;;;;;;1.90;1.50;;;1.40;99.90;;;;;;4367147;32;20089;-72
2021/11/14 03:13:29;;;;;;;1.75;1.35;;;1.40;99.90;;;;;;4379491;32;20081;-73
2021/11/14 03:15:59;;;;;;;1.98;1.15;;;1.50;99.90;;;;;;4371482;32;20103;-72
2021/11/14 03:18:25;;;;;;;2.75;1.27;;;1.50;99.90;;;;;;4370216;32;20073;-72
2021/11/14 03:20:52;;;;;;;1.45;1.27;;;1.50;99.90;;;;;;4354839;32;20092;-71
2021/11/14 03:23:19;;;;;;;1.77;1.23;;;1.50;99.90;;;;;;4379697;32;20070;-72
2021/11/14 03:25:45;;;;;;;2.50;1.65;;;1.60;99.90;;;;;;4367157;32;20073;-72
2021/11/14 03:28:12;;;;;;;1.58;1.25;;;1.50;99.90;;;;;;4354675;32;20089;-71
2021/11/14 03:30:39;;;;;;;2.28;1.35;;;1.50;99.90;;;;;;4366884;32;20521;-73
2021/11/14 03:33:08;;;;;;;2.47;1.50;;;1.50;99.90;;;;;;4366821;32;20104;-73
2021/11/14 03:36:16;;;;;;;1.33;1.23;;;1.50;99.90;;;;;;4354811;32;20157;-72
2021/11/14 03:38:48;;;;;;;;;;;1.50;99.90;;;;;;4379224;32;20532;-73
2021/11/14 03:41:18;;;;;;;1.65;1.40;;;1.50;99.90;;;;;;4367104;32;19961;-72
2021/11/14 03:43:44;;;;;;;2.25;1.50;;;1.50;99.90;;;;;;4366910;32;20085;-72
2021/11/14 03:46:10;;;;;;;2.55;1.08;;;1.50;99.90;;;;;;4366940;32;20084;-72
2021/11/14 03:48:39;;;;;;;1.80;1.48;;;1.50;99.90;;;;;;4366379;32;20162;-71
2021/11/14 03:51:05;;;;;;;1.10;1.00;;;1.50;99.90;;;;;;4366312;32;20567;-71
2021/11/14 03:53:35;;;;;;;1.58;1.08;;;1.50;99.90;;;;;;4367282;32;20084;-71
2021/11/14 03:56:01;;;;;;;1.60;1.20;;;1.50;99.90;;;;;;4366228;32;20077;-73
2021/11/14 03:58:27;;;;;;;1.50;1.02;;;1.50;99.90;;;;;;4378790;32;20081;-72
2021/11/14 04:00:56;;;;;;;2.15;1.50;;;1.50;99.90;;;;;;4366356;32;20077;-72
2021/11/14 04:03:23;;;;;;;2.65;1.52;;;1.50;99.90;;;;;;4342310;32;20088;-73
2021/11/14 04:05:49;;;;;;;2.17;1.60;;;1.50;99.90;;;;;;4366033;32;20073;-72
2021/11/14 04:08:18;;;;;;;1.75;1.52;;;1.50;99.90;;;;;;4378414;32;20081;-72
2021/11/14 04:10:46;;;;;;;1.70;1.55;;;1.50;99.90;;;;;;4371371;32;20069;-72
2021/11/14 04:13:13;;;;;;;1.98;1.55;;;1.60;99.90;;;;;;4372317;32;20073;-71
2021/11/14 04:15:39;;;;;;;2.10;1.30;;;1.40;99.90;;;;;;4369051;32;20182;-72
2021/11/14 04:18:05;;;;;;;1.75;1.33;;;1.40;99.90;;;;;;4366296;32;20100;-72
2021/11/14 04:20:32;;;;;;;1.87;1.52;;;1.40;99.90;;;;;;4353868;32;20077;-72
2021/11/14 04:22:59;;;;;;;2.28;1.35;;;1.40;99.90;;;;;;4353604;32;20076;-72
2021/11/14 04:25:25;;;;;;;2.75;1.83;;;1.40;99.90;;;;;;4366175;32;20099;-73
2021/11/14 04:27:52;;;;;;;2.75;1.70;;;1.50;99.90;;;;;;4365601;32;20069;-71
2021/11/14 04:30:18;;;;;;;2.80;1.80;;;1.40;99.90;;;;;;4365938;32;20086;-72
2021/11/14 04:32:45;;;;;;;1.27;1.17;;;1.40;99.90;;;;;;4353635;32;20088;-72
2021/11/14 04:35:11;;;;;;;2.12;1.60;;;1.40;99.90;;;;;;4353891;32;20524;-72
2021/11/14 04:37:38;;;;;;;2.10;1.52;;;1.40;99.90;;;;;;4353562;32;20117;-72
2021/11/14 04:40:06;;;;;;;2.92;1.50;;;1.50;99.90;;;;;;4375500;32;20078;-72
2021/11/14 04:42:32;;;;;;;3.40;2.00;;;1.40;99.90;;;;;;4363186;32;20078;-71
2021/11/14 04:44:58;;;;;;;2.62;1.77;;;1.40;99.90;;;;;;4363459;32;20066;-72
2021/11/14 04:47:24;;;;;;;2.25;1.95;;;1.40;99.90;;;;;;4363371;32;20059;-72
2021/11/14 04:49:50;;;;;;;2.50;1.73;;;1.40;99.90;;;;;;4375094;32;20074;-72
2021/11/14 04:52:16;;;;;;;4.22;2.35;;;1.40;99.90;;;;;;4350893;32;20073;-71
2021/11/14 04:54:43;;;;;;;4.20;2.80;;;1.40;99.90;;;;;;4375455;32;20074;-72
2021/11/14 04:57:09;;;;;;;5.95;3.50;;;1.40;99.90;;;;;;4363290;32;20098;-72
2021/11/14 04:59:35;;;;;;;4.37;3.10;;;1.40;99.90;;;;;;4375966;32;20090;-72
2021/11/14 05:02:02;;;;;;;4.28;2.95;;;1.50;99.90;;;;;;4350581;32;20178;-71
2021/11/14 05:04:28;;;;;;;3.97;2.40;;;1.50;99.90;;;;;;4375163;32;20072;-72
2021/11/14 05:06:54;;;;;;;3.62;2.15;;;1.50;99.90;;;;;;4376647;32;20078;-71
2021/11/14 05:09:20;;;;;;;3.85;2.37;;;1.50;99.90;;;;;;4376743;32;20066;-71
2021/11/14 05:11:46;;;;;;;3.00;1.65;;;1.50;99.90;;;;;;4362900;32;20105;-73
2021/11/14 05:14:12;;;;;;;2.12;1.83;;;1.50;99.90;;;;;;4363100;32;20168;-71
2021/11/14 05:16:38;;;;;;;2.40;1.83;;;1.60;99.90;;;;;;4376817;32;20082;-71
2021/11/14 05:19:05;;;;;;;2.80;1.70;;;1.60;99.90;;;;;;4374931;32;20148;-72
2021/11/14 05:21:31;;;;;;;4.05;1.80;;;1.60;99.90;;;;;;4376548;32;20179;-72
2021/11/14 05:23:57;;;;;;;2.58;1.95;;;1.60;99.90;;;;;;4376534;32;20089;-72
2021/11/14 05:26:23;;;;;;;3.30;2.17;;;1.60;99.90;;;;;;4362302;32;20536;-71
2021/11/14 05:28:49;;;;;;;2.60;1.58;;;1.60;99.90;;;;;;4362568;32;20539;-71
2021/11/14 05:31:15;;;;;;;2.37;1.60;;;1.60;99.90;;;;;;4362740;32;20062;-72
2021/11/14 05:33:42;;;;;;;2.42;1.55;;;1.50;99.90;;;;;;4374863;32;20514;-73
2021/11/14 05:36:08;;;;;;;2.30;1.60;;;1.50;99.90;;;;;;4362906;32;20132;-73
2021/11/14 05:38:34;;;;;;;2.70;1.48;;;1.50;99.90;;;;;;4374826;32;20098;-71
2021/11/14 05:41:00;;;;;;;2.83;2.08;;;1.60;99.90;;;;;;4362750;32;20105;-72
2021/11/14 05:43:26;;;;;;;3.78;2.08;;;1.50;99.90;;;;;;4376352;32;20173;-73
2021/11/14 05:45:52;;;;;;;3.30;1.98;;;1.50;99.90;;;;;;4368464;32;20165;-71
2021/11/14 05:48:18;;;;;;;2.65;1.90;;;1.50;99.90;;;;;;4377767;32;20074;-71
2021/11/14 05:50:45;;;;;;;3.55;2.00;;;1.60;99.90;;;;;;4374598;32;20069;-71
2021/11/14 05:53:11;;;;;;;3.80;2.00;;;1.70;99.90;;;;;;4375320;32;20096;-72
2021/11/14 05:55:37;;;;;;;3.58;2.47;;;1.60;99.90;;;;;;4375380;32;20085;-72
2021/11/14 05:58:05;;;;;;;4.10;2.70;;;1.60;99.90;;;;;;4338028;32;20097;-73
2021/11/14 06:03:09;;;;;;;4.53;2.37;;;1.60;99.90;;;;;;4363653;32;20174;-72
2021/11/14 06:05:38;;;;;;;4.53;2.90;;;1.60;99.90;;;;;;4350491;32;20452;-72
2021/11/14 06:08:06;;;;;;;4.50;2.80;;;1.60;99.90;;;;;;4363018;32;20075;-72
2021/11/14 06:10:32;;;;;;;5.05;3.03;;;1.70;99.90;;;;;;4362466;32;20153;-72
2021/11/14 06:12:58;;;;;;;4.07;2.53;;;1.60;99.90;;;;;;4362331;32;20504;-72
2021/11/14 06:15:25;;;;;;;3.87;2.47;;;1.60;99.90;;;;;;4362206;32;20074;-72
2021/11/14 06:17:51;;;;;;;4.62;2.80;;;1.70;99.90;;;;;;4361945;32;20062;-71
2021/11/14 06:20:18;;;;;;;5.57;2.67;;;1.60;99.90;;;;;;4362024;32;20101;-73
2021/11/14 06:22:44;;;;;;;4.05;2.42;;;1.60;99.90;;;;;;4362455;32;20118;-72
2021/11/14 06:25:11;;;;;;;4.05;2.80;;;1.60;99.90;;;;;;4362329;32;20113;-73
2021/11/14 06:27:37;;;;;;;3.45;2.30;;;1.70;99.90;;;;;;4374770;32;20097;-71
2021/11/14 06:30:10;;;;;;;3.05;2.33;;;1.70;99.90;;;;;;4362505;32;20076;-71
2021/11/14 06:32:36;;;;;;;4.53;2.40;;;1.60;99.90;;;;;;4362430;32;20074;-72
2021/11/14 06:35:03;;;;;;;3.90;2.40;;;1.50;99.90;;;;;;4374259;32;20520;-73
2021/11/14 06:37:29;;;;;;;3.28;2.10;;;1.50;99.90;;;;;;4362619;32;20066;-72
2021/11/14 06:39:55;;;;;;;3.92;2.50;;;1.50;99.90;;;;;;4377889;32;20097;-73
2021/11/14 06:42:21;;;;;;;4.00;2.53;;;1.50;99.90;;;;;;4366032;32;20174;-72
2021/11/14 06:44:48;;;;;;;3.28;2.50;;;1.50;99.90;;;;;;4380408;32;20069;-71
2021/11/14 06:47:14;;;;;;;3.22;2.30;;;1.50;99.90;;;;;;4366032;32;20071;-72
2021/11/14 06:49:40;;;;;;;2.15;1.58;;;1.50;99.90;;;;;;4378214;32;20057;-72
2021/11/14 06:52:07;;;;;;;3.78;1.98;;;1.40;99.90;;;;;;4353918;32;20085;-71
2021/11/14 06:54:33;;;;;;;1.58;1.42;;;1.50;99.90;;;;;;4354551;32;20084;-72
2021/11/14 06:57:00;;;;;;;2.37;1.73;;;1.50;99.90;;;;;;4378925;32;20085;-72
2021/11/14 06:59:26;;;;;;;4.95;2.62;;;1.50;99.90;;;;;;4366469;32;20089;-72
2021/11/14 07:01:52;;;;;;;4.35;2.40;;;1.50;99.90;;;;;;4379829;32;20174;-71
2021/11/14 07:04:18;;;;;;;3.58;2.12;;;1.50;99.90;;;;;;4379745;32;20123;-72
2021/11/14 07:06:46;;;;;;;4.40;2.20;;;1.60;99.90;;;;;;4367263;32;20150;-72
2021/11/14 07:09:13;;;;;;;2.83;1.83;;;1.50;99.90;;;;;;4367057;32;20101;-73
2021/11/14 07:11:39;;;;;;;2.58;1.77;;;1.50;99.90;;;;;;4378007;32;20078;-72
2021/11/14 07:14:06;;;;;;;2.85;1.60;;;1.50;99.90;;;;;;4379206;32;20089;-72
2021/11/14 07:16:33;;;;;;;2.12;1.10;;;1.50;99.90;;;;;;4385736;32;20088;-71
2021/11/14 07:18:59;;;;;;;2.78;1.65;;;1.40;99.90;;;;;;4364982;32;20145;-73
2021/11/14 07:21:25;;;;;;;1.70;1.27;;;1.50;99.90;;;;;;4364473;32;20200;-72
2021/11/14 07:23:52;;;;;;;1.40;1.25;;;1.50;99.90;;;;;;4376922;32;20081;-72
2021/11/14 07:26:18;;;;;;;4.32;1.90;;;1.60;99.90;;;;;;4352417;32;20070;-73
2021/11/14 07:28:44;;;;;;;1.48;1.35;;;1.60;99.90;;;;;;4378164;32;20072;-73
2021/11/14 07:31:10;;;;;;;3.22;1.62;;;1.50;99.90;;;;;;4364033;32;20085;-71
2021/11/14 07:33:36;;;;;;;3.20;1.87;;;1.60;99.90;;;;;;4364286;32;20090;-72
2021/11/14 07:36:05;;;;;;;2.15;1.55;;;1.60;99.90;;;;;;4364092;32;20512;-72
2021/11/14 07:38:31;;;;;;;1.17;0.95;;;1.60;99.90;;;;;;4363724;32;20089;-72
2021/11/14 07:40:57;;;;;;;4.70;1.73;;;1.40;99.90;;;;;;4377017;32;20066;-72
2021/11/14 07:43:24;;;;;;;5.55;1.70;;;1.50;99.90;;;;;;4376777;32;20064;-72
2021/11/14 07:45:50;;;;;;;2.87;1.45;;;1.50;99.90;;;;;;4364373;32;20081;-71
2021/11/14 07:48:16;;;;;;;2.90;0.90;;;1.50;99.90;;;;;;4365542;32;20222;-72
2021/11/14 07:50:45;;;;;;;0.85;0.80;;;1.50;99.90;;;;;;4380474;32;20092;-73
2021/11/14 07:53:12;;;;;;;2.17;1.10;;;1.50;99.90;;;;;;4367868;32;20156;-73
2021/11/14 07:55:39;;;;;;;1.65;0.98;;;1.40;99.90;;;;;;4365112;32;20097;-72
2021/11/14 07:58:06;;;;;;;1.73;1.30;;;1.40;99.90;;;;;;4376409;32;20166;-71
2021/11/14 08:00:34;;;;;;;3.50;1.85;;;1.40;99.90;;;;;;4364116;32;20157;-73
2021/11/14 08:03:00;;;;;;;1.65;1.20;;;1.40;99.90;;;;;;4375880;32;20078;-72
2021/11/14 08:05:28;;;;;;;2.40;0.93;;;1.30;99.90;;;;;;4376099;32;20077;-72
2021/11/14 08:07:55;;;;;;;0.98;0.82;;;1.40;99.90;;;;;;4376338;32;20085;-71
2021/11/14 08:10:21;;;;;;;3.25;1.15;;;1.30;99.90;;;;;;4351571;32;20078;-72
2021/11/14 08:12:48;;;;;;;2.05;1.50;;;1.40;99.90;;;;;;4364959;32;20146;-72
2021/11/14 08:15:14;;;;;;;1.58;1.42;;;1.40;99.90;;;;;;4344183;32;20536;-72
2021/11/14 08:17:40;;;;;;;2.58;1.65;;;1.50;99.90;;;;;;4378049;32;20452;-72
2021/11/14 08:20:08;;;;;;;2.75;1.45;;;1.40;99.90;;;;;;4364061;32;20070;-72
2021/11/14 08:22:35;;;;;;;1.52;1.33;;;1.60;99.90;;;;;;4363526;32;20081;-72
2021/11/14 08:25:01;;;;;;;3.75;1.58;;;1.60;99.90;;;;;;4376878;32;20194;-73
2021/11/14 08:27:30;;;;;;;1.40;1.17;;;1.60;99.90;;;;;;4364155;32;20452;-72
2021/11/14 08:29:57;;;;;;;1.42;1.33;;;1.60;99.90;;;;;;4363992;32;20070;-72
2021/11/14 08:32:24;;;;;;;2.30;1.20;;;1.50;99.90;;;;;;4363453;32;20086;-73
2021/11/14 08:34:50;;;;;;;1.33;0.80;;;1.50;99.90;;;;;;4362989;32;20509;-73
2021/11/14 08:37:16;;;;;;;1.58;0.90;;;1.50;99.90;;;;;;4375791;32;20216;-72
2021/11/14 08:39:42;;;;;;;4.30;1.40;;;1.80;99.90;;;;;;4375520;32;20090;-72
2021/11/14 08:42:09;;;;;;;2.40;1.20;;;1.70;99.90;;;;;;4351008;32;20086;-72
2021/11/14 08:44:35;;;;;;;2.33;1.50;;;1.70;99.90;;;;;;4363304;32;20156;-71
2021/11/14 08:47:01;;;;;;;3.55;1.95;;;1.60;99.90;;;;;;4363157;32;20188;-73
2021/11/14 08:49:27;;;;;;;3.67;1.92;;;1.60;99.90;;;;;;4362834;32;20236;-73
2021/11/14 08:51:53;;;;;;;3.53;1.70;;;1.70;99.90;;;;;;4350600;32;20074;-72
2021/11/14 08:54:20;;;;;;;4.35;1.90;;;1.80;99.90;;;;;;4363030;32;20141;-74
2021/11/14 08:56:46;;;;;;;2.08;1.40;;;1.60;99.90;;;;;;4363195;32;20158;-72
2021/11/14 08:59:12;;;;;;;1.62;1.10;;;1.50;99.90;;;;;;4363231;32;20077;-73
2021/11/14 09:01:38;;;;;;;2.30;1.10;;;1.70;99.90;;;;;;4374670;32;20170;-72
2021/11/14 09:04:07;;;;;;;2.40;1.50;;;1.50;99.90;;;;;;4363220;32;20100;-72
2021/11/14 09:06:36;;;;;;;2.72;1.10;;;1.50;99.90;;;;;;4375968;32;20166;-72
2021/11/14 09:09:05;;;;;;;2.25;1.33;;;1.50;99.90;;;;;;4375851;32;20078;-72
2021/11/14 09:11:31;;;;;;;1.12;0.98;;;1.60;99.90;;;;;;4375383;32;20093;-73
2021/11/14 09:13:57;;;;;;;1.98;1.40;;;1.60;99.90;;;;;;4375299;32;20157;-72
2021/11/14 09:16:27;;;;;;;1.62;1.20;;;1.60;99.90;;;;;;4375309;32;20143;-73
2021/11/14 09:18:55;;;;;;;3.15;1.60;;;1.70;99.90;;;;;;4375299;32;20078;-73
2021/11/14 09:21:22;;;;;;;3.65;1.75;;;1.50;99.90;;;;;;4363029;32;20089;-72
2021/11/14 09:23:49;;;;;;;1.85;1.30;;;1.60;99.90;;;;;;4374998;32;20146;-73
2021/11/14 09:26:16;;;;;;;2.25;1.37;;;1.50;99.90;;;;;;4362673;32;20070;-73
2021/11/14 09:28:43;;;;;;;3.20;1.35;;;1.60;99.90;;;;;;4375404;32;20081;-71
2021/11/14 09:31:10;;;;;;;3.17;1.40;;;1.60;99.90;;;;;;4374839;32;20074;-73
2021/11/14 09:33:39;;;;;;;4.90;1.85;;;1.40;99.90;;;;;;4362701;32;20162;-72
2021/11/14 09:36:06;;;;;;;4.12;1.48;;;1.40;99.90;;;;;;4350300;32;20596;-72
2021/11/14 09:38:33;;;;;;;3.42;1.55;;;1.40;99.90;;;;;;4362746;32;20073;-72
2021/11/14 09:41:00;;;;;;;1.98;1.40;;;1.40;99.90;;;;;;4362831;32;20191;-73
2021/11/14 09:43:28;;;;;;;2.05;1.40;;;1.40;99.90;;;;;;4362949;32;20096;-71
2021/11/14 09:45:55;;;;;;;1.37;1.23;;;1.40;99.90;;;;;;4363030;32;20455;-72
2021/11/14 09:48:22;;;;;;;1.45;1.20;;;1.50;99.90;;;;;;4363233;32;20078;-72
2021/11/14 09:50:52;;;;;;;2.35;1.70;;;1.50;99.90;;;;;;4349924;32;20086;-72
2021/11/14 09:53:18;;;;;;;2.22;1.60;;;1.60;99.90;;;;;;4375308;32;20084;-73
2021/11/14 09:55:48;;;;;;;2.90;1.80;;;1.60;99.90;;;;;;4349831;32;20090;-72
2021/11/14 09:58:14;;;;;;;3.30;2.05;;;1.40;99.90;;;;;;4362512;32;20111;-72
2021/11/14 10:00:41;;;;;;;3.50;1.40;;;1.50;99.90;;;;;;4374860;32;20151;-73
2021/11/14 10:03:08;;;;;;;2.72;1.75;;;1.60;99.90;;;;;;4362577;32;20169;-72
2021/11/14 10:05:34;;;;;;;1.30;1.10;;;1.50;99.90;;;;;;4350187;32;20070;-71
2021/11/14 10:08:05;;;;;;;3.25;1.83;;;1.50;99.90;;;;;;4374531;32;20167;-72
2021/11/14 10:10:36;;;;;;;1.25;1.15;;;1.50;99.90;;;;;;4362667;32;20075;-72
2021/11/14 10:13:19;;;;;;;2.08;1.45;;;1.50;99.90;;;;;;4353592;32;20101;-72
2021/11/14 10:15:51;;;;;;;3.83;1.77;;;1.40;99.90;;;;;;4377976;32;20070;-72
2021/11/14 10:18:20;;;;;;;3.80;1.80;;;1.30;99.90;;;;;;4366472;32;20085;-71
2021/11/14 10:20:47;;;;;;;2.45;1.70;;;1.20;99.90;;;;;;4378270;32;20077;-71
2021/11/14 10:23:15;;;;;;;3.25;1.80;;;1.30;99.90;;;;;;4365880;32;20472;-71
2021/11/14 10:25:43;;;;;;;3.65;1.92;;;1.30;99.90;;;;;;4353254;32;20074;-72
2021/11/14 10:28:09;;;;;;;4.10;1.95;;;1.20;99.90;;;;;;4365697;32;20077;-71
2021/11/14 10:30:45;;;;;;;3.42;2.28;;;1.10;99.90;;;;;;4365644;32;20163;-72
2021/11/14 10:33:14;;;;;;;3.53;2.25;;;1.20;99.90;;;;;;4365929;32;20516;-72
2021/11/14 10:35:43;;;;;;;3.85;1.87;;;1.30;99.90;;;;;;4365293;32;20081;-72
2021/11/14 10:38:24;;;;;;;3.55;1.92;;;1.20;99.90;;;;;;4365710;32;20559;-73
2021/11/14 10:40:57;;;;;;;4.90;2.00;;;1.20;99.90;;;;;;4369024;32;20151;-71
2021/11/14 10:43:23;;;;;;;2.78;1.62;;;1.10;99.90;;;;;;4371541;32;20519;-71
2021/11/14 10:45:51;;;;;;;4.03;1.70;;;1.10;99.90;;;;;;4360680;32;20069;-73
2021/11/14 10:48:25;;;;;;;3.33;1.67;;;1.10;99.90;;;;;;4380197;32;20089;-72
2021/11/14 10:50:55;;;;;;;2.62;1.70;;;1.10;99.90;;;;;;4368553;32;20083;-72
2021/11/14 10:53:28;;;;;;;3.12;1.60;;;1.20;99.90;;;;;;4380256;32;20081;-72
2021/11/14 10:55:57;;;;;;;4.43;1.67;;;1.20;99.90;;;;;;4355394;32;20166;-71
2021/11/14 10:58:26;;;;;;;4.68;1.40;;;1.10;99.90;;;;;;4379710;32;20173;-72
2021/11/14 11:00:59;;;;;;;2.12;1.70;;;1.00;99.90;;;;;;4380179;32;20093;-71
2021/11/14 11:03:33;;;;;;;2.10;1.70;;;1.10;99.90;;;;;;4356352;32;20083;-72
2021/11/14 11:06:16;;;;;;;4.03;1.98;;;1.00;99.90;;;;;;4368540;32;20539;-72
2021/11/14 11:08:44;;;;;;;2.30;1.52;;;1.00;99.90;;;;;;4356309;32;20088;-73
2021/11/14 11:11:10;;;;;;;3.20;1.90;;;1.00;99.90;;;;;;4379238;32;20080;-72
2021/11/14 11:13:45;;;;;;;2.42;1.85;;;1.00;99.90;;;;;;4379480;32;20459;-71
2021/11/14 11:16:33;;;;;;;4.50;1.83;;;1.00;99.90;;;;;;4379962;32;20062;-72
2021/11/14 11:21:45;;;;;;;2.35;1.70;;;0.80;99.90;;;;;;3857304;37;20054;-71
2021/11/14 11:24:18;;;;;;;3.40;2.20;;;0.80;99.90;;;;;;4382163;32;20124;-72
2021/11/14 11:27:05;;;;;;;6.40;2.20;;;0.90;99.90;;;;;;4390691;32;20092;-71
2021/11/14 11:29:33;;;;;;;2.55;1.80;;;0.80;99.90;;;;;;4390604;32;20069;-71
2021/11/14 11:31:59;;;;;;;3.12;2.10;;;0.80;99.90;;;;;;4390580;32;20163;-72
2021/11/14 11:34:26;;;;;;;5.25;2.60;;;0.80;99.90;;;;;;4402730;32;20558;-73
2021/11/14 11:36:53;;;;;;;4.78;2.42;;;0.90;99.90;;;;;;4390838;32;20073;-72
2021/11/14 11:39:19;;;;;;;7.00;3.20;;;0.80;99.90;;;;;;4403136;32;20165;-74
2021/11/14 11:41:48;;;;;;;5.07;2.50;;;0.80;99.90;;;;;;4403472;32;20080;-72
2021/11/14 11:44:15;;;;;;;5.12;2.62;;;0.80;99.90;;;;;;4402946;32;20137;-74
2021/11/14 11:46:42;;;;;;;4.97;2.90;;;0.80;99.90;;;;;;4377759;32;20093;-73
2021/11/14 11:49:13;;;;;;;4.68;2.37;;;0.80;99.90;;;;;;4403230;32;20527;-72
2021/11/14 11:51:46;;;;;;;3.35;1.90;;;0.80;99.90;;;;;;4404331;32;20099;-74
2021/11/14 11:54:15;;;;;;;2.65;1.77;;;0.70;99.90;;;;;;4395151;32;20076;-74
2021/11/14 11:56:46;;;;;;;4.10;2.40;;;0.60;99.90;;;;;;4396556;32;20066;-72
2021/11/14 11:59:21;;;;;;;3.05;2.10;;;0.60;99.90;;;;;;4397044;32;20169;-72
2021/11/14 12:02:00;;;;;;;2.83;2.00;;;0.60;99.90;;;;;;4391119;32;20086;-73
2021/11/14 12:04:32;;;;;;;2.55;1.80;;;0.60;99.90;;;;;;4377970;32;20078;-72
2021/11/14 12:07:11;;;;;;;3.15;1.85;;;0.50;99.90;;;;;;4402664;32;20050;-72
2021/11/14 12:09:41;;;;;;;2.12;1.92;;;0.50;99.90;;;;;;4402766;32;20073;-71
2021/11/14 12:12:27;;;;;;;2.95;2.10;;;0.50;99.90;;;;;;4389928;32;20565;-73
2021/11/14 12:15:14;;;;;;;5.47;3.08;;;0.40;99.90;;;;;;4390745;32;20153;-72
2021/11/14 12:17:51;;;;;;;5.45;3.55;;;0.40;99.90;;;;;;4402153;32;20183;-73
2021/11/14 12:20:28;;;;;;;6.32;3.10;;;0.40;99.90;;;;;;4402442;32;20069;-72
2021/11/14 12:22:58;;;;;;;8.95;3.55;;;0.20;99.90;;;;;;4390811;32;20078;-72
2021/11/14 12:25:26;;;;;;;5.65;3.50;;;0.20;99.90;;;;;;4390150;32;20150;-73
2021/11/14 12:28:03;;;;;;;6.47;3.17;;;0.20;99.90;;;;;;4402168;32;20226;-73
2021/11/14 12:30:30;;;;;;;6.10;3.78;;;0.30;99.90;;;;;;4390166;32;20092;-73
2021/11/14 12:32:57;;;;;;;5.22;3.33;;;0.20;99.90;;;;;;4392721;32;20084;-73
2021/11/14 12:35:35;;;;;;;6.12;2.97;;;0.20;99.90;;;;;;4379735;32;20158;-73
2021/11/14 12:38:05;;;;;;;6.87;2.95;;;0.20;99.90;;;;;;4392211;32;20068;-73
2021/11/14 12:40:43;;;;;;;6.15;3.45;;;0.10;99.90;;;;;;4392276;32;20137;-72
2021/11/14 12:43:14;;;;;;;6.57;4.00;;;0.00;99.90;;;;;;4379412;32;20070;-72
2021/11/14 12:45:56;;;;;;;8.88;4.10;;;-0.10;99.90;;;;;;4392009;32;20246;-73
2021/11/14 12:48:28;;;;;;;7.75;3.90;;;-0.30;99.90;;;;;;4380226;32;20074;-73
2021/11/14 12:51:16;;;;;;;9.50;5.00;;;-0.30;99.90;;;;;;4379683;32;20089;-72
2021/11/14 12:54:02;;;;;;;8.93;4.10;;;-0.40;99.90;;;;;;4367850;32;20073;-73
2021/11/14 12:56:37;;;;;;;5.15;3.58;;;-0.40;99.90;;;;;;4380129;32;20421;-73
2021/11/14 12:59:27;;;;;;;9.55;3.70;;;-0.50;99.90;;;;;;4392159;32;20512;-73
2021/11/14 13:02:02;;;;;;;6.85;3.40;;;-0.50;99.90;;;;;;4392087;32;20540;-73
2021/11/14 13:04:31;;;;;;;7.47;3.35;;;-0.50;99.90;;;;;;4379910;32;20155;-73
2021/11/14 13:06:59;;;;;;;8.98;3.12;;;-0.50;99.90;;;;;;4379308;32;20504;-72
2021/11/14 13:09:25;;;;;;;5.80;3.30;;;-0.60;99.90;;;;;;4367126;32;20500;-72